Time;durP1;ratioP1;P1;durP2;ratioP2;P2;SDS_P1;SDS_P2;PMS_P1;PMS_P2;Temp;Humidity;BMP_temperature;BMP_pressure;BME280_temperature;BME280_humidity;BME280_pressure;Samples;Min_cycle;Max_cycle;Signal;HPM_P1;HPM_P2
2022/11/12 00:00:34;;;;;;;9.20;5.03;;;9.60;99.90;;;;;;5033192;28;20039;-74
2022/11/12 00:03:00;;;;;;;11.15;5.05;;;9.50;99.90;;;;;;5033506;28;20025;-74
2022/11/12 00:05:28;;;;;;;8.85;5.05;;;9.50;99.90;;;;;;5032422;28;20061;-73
2022/11/12 00:07:56;;;;;;;9.85;5.10;;;9.50;99.90;;;;;;5034721;28;20437;-73
2022/11/12 00:10:22;;;;;;;9.73;5.03;;;9.40;99.90;;;;;;5033239;28;20025;-74
2022/11/12 00:12:48;;;;;;;13.10;5.57;;;9.40;99.90;;;;;;5029852;28;20151;-73
2022/11/12 00:15:14;;;;;;;13.05;6.00;;;9.40;99.90;;;;;;5032961;28;20041;-74
2022/11/12 00:17:39;;;;;;;13.30;5.50;;;9.40;99.90;;;;;;5031758;28;20033;-74
2022/11/12 00:20:06;;;;;;;11.40;5.25;;;9.40;99.90;;;;;;5033751;28;20022;-73
2022/11/12 00:22:32;;;;;;;13.63;5.68;;;9.40;99.90;;;;;;5027193;28;20048;-73
2022/11/12 00:25:02;;;;;;;10.27;5.30;;;9.40;99.90;;;;;;5030402;28;21421;-74
2022/11/12 00:27:31;;;;;;;16.40;6.50;;;9.40;99.90;;;;;;5032916;28;20041;-73
2022/11/12 00:29:57;;;;;;;12.63;5.50;;;9.40;99.90;;;;;;5047385;28;20038;-73
2022/11/12 00:32:22;;;;;;;10.00;5.80;;;9.30;99.90;;;;;;5033403;28;20026;-74
2022/11/12 00:34:48;;;;;;;14.40;6.70;;;9.30;99.90;;;;;;5032578;28;20022;-73
2022/11/12 00:37:13;;;;;;;10.48;6.53;;;9.30;99.90;;;;;;5030674;28;20377;-73
2022/11/12 00:39:39;;;;;;;12.55;6.30;;;9.30;99.90;;;;;;5033203;28;20021;-73
2022/11/12 00:42:05;;;;;;;10.48;5.00;;;9.30;99.90;;;;;;5032656;28;20033;-73
2022/11/12 00:44:30;;;;;;;10.52;5.63;;;9.30;99.90;;;;;;5033055;28;20091;-74
2022/11/12 00:46:56;;;;;;;17.52;5.30;;;9.30;99.90;;;;;;5030814;28;20026;-73
2022/11/12 00:49:22;;;;;;;10.23;5.18;;;9.30;99.90;;;;;;5032624;28;20034;-73
2022/11/12 00:51:50;;;;;;;15.60;5.78;;;9.20;99.90;;;;;;5032773;28;20017;-73
2022/11/12 00:54:19;;;;;;;37.88;10.82;;;9.20;99.90;;;;;;5031961;28;20099;-73
2022/11/12 00:56:46;;;;;;;40.33;12.35;;;9.20;99.90;;;;;;5031943;28;20044;-72
2022/11/12 00:59:12;;;;;;;53.38;16.02;;;9.20;99.90;;;;;;5046033;28;20022;-73
2022/11/12 01:01:38;;;;;;;42.63;12.45;;;9.20;99.90;;;;;;5031927;28;20026;-74
2022/11/12 01:04:04;;;;;;;14.60;6.95;;;9.20;99.90;;;;;;5031955;28;20339;-74
2022/11/12 01:06:32;;;;;;;12.10;5.65;;;9.10;99.90;;;;;;5031671;28;20021;-73
2022/11/12 01:08:59;;;;;;;9.77;4.85;;;9.10;99.90;;;;;;5033108;28;20095;-74
2022/11/12 01:11:28;;;;;;;9.15;4.95;;;9.10;99.90;;;;;;5033296;28;20401;-73
2022/11/12 01:13:56;;;;;;;11.20;5.15;;;9.00;99.90;;;;;;5023678;28;20443;-73
2022/11/12 01:16:24;;;;;;;12.43;6.07;;;9.10;99.90;;;;;;5028787;28;20095;-72
2022/11/12 01:18:55;;;;;;;16.45;6.65;;;9.00;99.90;;;;;;5031184;28;20103;-74
2022/11/12 01:21:22;;;;;;;14.48;6.40;;;9.00;99.90;;;;;;5030876;28;20091;-73
2022/11/12 01:23:48;;;;;;;11.10;5.55;;;9.00;99.90;;;;;;5032601;28;20065;-74
2022/11/12 01:26:15;;;;;;;31.27;8.23;;;9.00;99.90;;;;;;5031512;28;20049;-73
2022/11/12 01:28:44;;;;;;;14.82;7.10;;;9.00;99.90;;;;;;5032435;28;20029;-74
2022/11/12 01:31:12;;;;;;;24.30;8.20;;;8.90;99.90;;;;;;5031568;28;20029;-73
2022/11/12 01:33:38;;;;;;;25.35;8.13;;;8.90;99.90;;;;;;5031981;28;20462;-73
2022/11/12 01:36:05;;;;;;;16.77;7.00;;;8.80;99.90;;;;;;5032389;28;20120;-73
2022/11/12 01:38:39;;;;;;;13.52;5.63;;;8.70;99.90;;;;;;5032167;28;20473;-72
2022/11/12 01:41:06;;;;;;;11.27;5.88;;;8.60;99.90;;;;;;5032325;28;20064;-74
2022/11/12 01:43:36;;;;;;;12.10;6.43;;;8.60;99.90;;;;;;5030406;28;20041;-73
2022/11/12 01:46:12;;;;;;;12.48;5.25;;;8.60;99.90;;;;;;5032223;28;20073;-73
2022/11/12 01:48:44;;;;;;;14.60;5.65;;;8.60;99.90;;;;;;5030220;28;20025;-74
2022/11/12 01:51:11;;;;;;;11.48;5.43;;;8.60;99.90;;;;;;5031399;28;20021;-73
2022/11/12 01:53:46;;;;;;;8.95;5.10;;;8.50;99.90;;;;;;5030613;28;20026;-74
2022/11/12 01:56:13;;;;;;;12.23;5.63;;;8.50;99.90;;;;;;5031476;28;20021;-73
2022/11/12 01:58:42;;;;;;;10.35;5.55;;;8.60;99.90;;;;;;5031667;28;20026;-73
2022/11/12 02:01:12;;;;;;;11.45;5.30;;;8.60;99.90;;;;;;5030707;28;20123;-74
2022/11/12 02:03:38;;;;;;;8.20;5.00;;;8.60;99.90;;;;;;5030959;28;20683;-74
2022/11/12 02:06:09;;;;;;;8.60;5.18;;;8.60;99.90;;;;;;5030338;28;20064;-74
2022/11/12 02:08:37;;;;;;;10.75;5.13;;;8.60;99.90;;;;;;5030098;28;20032;-74
2022/11/12 02:11:23;;;;;;;9.93;4.63;;;8.60;99.90;;;;;;5031814;28;20029;-73
2022/11/12 02:13:57;;;;;;;11.30;5.10;;;8.60;99.90;;;;;;5029916;28;20048;-73
2022/11/12 02:16:34;;;;;;;14.20;5.68;;;8.60;99.90;;;;;;5030648;28;20021;-73
2022/11/12 02:19:01;;;;;;;8.52;4.55;;;8.60;99.90;;;;;;5030865;28;20402;-74
2022/11/12 02:21:27;;;;;;;6.90;4.65;;;8.40;99.90;;;;;;5029549;28;20167;-73
2022/11/12 02:24:12;;;;;;;10.38;4.50;;;8.40;99.90;;;;;;5027728;28;20565;-73
2022/11/12 02:26:41;;;;;;;8.73;4.05;;;8.30;99.90;;;;;;5030431;28;20104;-73
2022/11/12 02:29:07;;;;;;;8.68;4.45;;;8.20;99.90;;;;;;5029027;28;20153;-72
2022/11/12 02:31:33;;;;;;;5.63;4.13;;;8.20;99.90;;;;;;5030027;28;20112;-74
2022/11/12 02:33:58;;;;;;;9.52;5.57;;;8.10;99.90;;;;;;5028779;28;20048;-74
2022/11/12 02:36:27;;;;;;;13.05;5.60;;;8.10;99.90;;;;;;5030727;28;20021;-73
2022/11/12 02:38:53;;;;;;;14.57;5.47;;;8.10;99.90;;;;;;5029216;28;20164;-75
2022/11/12 02:41:19;;;;;;;12.15;5.30;;;8.00;99.90;;;;;;5028332;28;20381;-73
2022/11/12 02:43:47;;;;;;;11.43;6.15;;;8.10;99.90;;;;;;5029027;28;20033;-73
2022/11/12 02:46:13;;;;;;;13.25;5.75;;;8.10;99.90;;;;;;5030020;28;20454;-74
2022/11/12 02:48:44;;;;;;;10.23;5.55;;;8.10;99.90;;;;;;5029232;28;20049;-74
2022/11/12 02:51:10;;;;;;;9.82;5.65;;;8.00;99.90;;;;;;5027451;28;20330;-73
2022/11/12 02:53:35;;;;;;;15.02;6.47;;;8.00;99.90;;;;;;5029165;28;20025;-72
2022/11/12 02:56:03;;;;;;;12.07;6.82;;;8.00;99.90;;;;;;5029244;28;20506;-73
2022/11/12 02:58:29;;;;;;;14.13;6.55;;;8.10;99.90;;;;;;5028924;28;20048;-73
2022/11/12 03:00:58;;;;;;;11.77;5.85;;;8.20;99.90;;;;;;5029438;28;20021;-73
2022/11/12 03:03:24;;;;;;;11.13;6.28;;;8.30;99.90;;;;;;5027595;28;20463;-73
2022/11/12 03:05:59;;;;;;;10.77;6.45;;;8.30;99.90;;;;;;5026210;28;20025;-73
2022/11/12 03:08:25;;;;;;;10.60;6.30;;;8.40;99.90;;;;;;5028950;28;20029;-72
2022/11/12 03:10:55;;;;;;;8.32;6.07;;;8.40;99.90;;;;;;5017682;28;20365;-73
2022/11/12 03:13:23;;;;;;;10.10;5.70;;;8.40;99.90;;;;;;5028035;28;20104;-73
2022/11/12 03:15:49;;;;;;;12.55;6.25;;;8.40;99.90;;;;;;5029841;28;20091;-74
2022/11/12 03:18:17;;;;;;;12.63;5.95;;;8.30;99.90;;;;;;5028361;28;20034;-73
2022/11/12 03:20:43;;;;;;;12.57;6.65;;;8.30;99.90;;;;;;5012779;28;20121;-73
2022/11/12 03:23:10;;;;;;;10.30;5.90;;;8.30;99.90;;;;;;5028554;28;20109;-73
2022/11/12 03:25:40;;;;;;;19.23;6.85;;;8.30;99.90;;;;;;5029801;28;20029;-73
2022/11/12 03:28:09;;;;;;;20.25;6.70;;;8.30;99.90;;;;;;5032620;28;20088;-72
2022/11/12 03:30:37;;;;;;;15.60;6.25;;;8.40;99.90;;;;;;5031806;28;20159;-73
2022/11/12 03:33:04;;;;;;;14.13;6.45;;;8.40;99.90;;;;;;5030968;28;20398;-72
2022/11/12 03:35:30;;;;;;;16.33;6.68;;;8.40;99.90;;;;;;5030218;28;20021;-74
2022/11/12 03:37:57;;;;;;;10.98;6.30;;;8.40;99.90;;;;;;5048659;28;20407;-73
2022/11/12 03:40:26;;;;;;;9.45;6.00;;;8.40;99.90;;;;;;5033377;28;20029;-72
2022/11/12 03:42:55;;;;;;;13.88;6.00;;;8.40;99.90;;;;;;4995097;28;1101843;-73
2022/11/12 03:45:26;;;;;;;11.10;6.50;;;8.40;99.90;;;;;;5032436;28;20816;-73
2022/11/12 03:47:54;;;;;;;16.83;7.00;;;8.40;99.90;;;;;;5026937;28;20056;-74
2022/11/12 03:50:22;;;;;;;14.55;6.65;;;8.40;99.90;;;;;;5032739;28;20017;-73
2022/11/12 03:52:50;;;;;;;13.63;6.32;;;8.40;99.90;;;;;;5034715;28;20021;-75
2022/11/12 03:55:18;;;;;;;11.13;6.15;;;8.40;99.90;;;;;;5034053;28;20037;-74
2022/11/12 03:57:46;;;;;;;10.30;6.05;;;8.40;99.90;;;;;;5034696;28;20029;-75
2022/11/12 04:00:15;;;;;;;11.82;5.70;;;8.40;99.90;;;;;;5031580;28;20040;-74
2022/11/12 04:02:41;;;;;;;11.85;6.13;;;8.40;99.90;;;;;;5031784;28;20107;-74
2022/11/12 04:10:48;;;;;;;11.23;6.35;;;8.30;99.90;;;;;;5033252;28;20083;-74
2022/11/12 04:13:27;;;;;;;11.85;6.57;;;8.30;99.90;;;;;;5030662;28;20029;-75
2022/11/12 04:21:50;;;;;;;12.77;6.85;;;8.20;99.90;;;;;;5032761;28;20076;-75
2022/11/12 04:27:21;;;;;;;12.40;6.82;;;8.10;99.90;;;;;;5032438;28;20450;-74
2022/11/12 04:32:35;;;;;;;16.00;6.55;;;8.20;99.90;;;;;;5033470;28;20032;-73
2022/11/12 04:35:01;;;;;;;15.20;6.93;;;8.20;99.90;;;;;;5032968;28;20025;-73
2022/11/12 04:37:28;;;;;;;9.02;6.07;;;8.20;99.90;;;;;;5032511;28;20112;-74
2022/11/12 04:39:54;;;;;;;14.45;6.57;;;8.20;99.90;;;;;;5031613;28;20127;-73
2022/11/12 04:45:09;;;;;;;12.13;5.85;;;8.20;99.90;;;;;;5033194;28;20248;-74
2022/11/12 04:47:40;;;;;;;16.20;7.18;;;8.10;99.90;;;;;;5033631;28;20033;-73
2022/11/12 04:50:14;;;;;;;13.25;6.70;;;8.00;99.90;;;;;;5032213;28;20022;-74
2022/11/12 04:52:42;;;;;;;10.63;5.85;;;7.90;99.90;;;;;;5047181;28;20035;-74
2022/11/12 04:55:08;;;;;;;12.15;6.20;;;7.90;99.90;;;;;;5030940;28;20025;-74
2022/11/12 04:57:34;;;;;;;18.98;7.05;;;7.80;99.90;;;;;;5032302;28;20443;-74
2022/11/12 05:00:00;;;;;;;11.82;5.95;;;7.80;99.90;;;;;;5033940;28;20048;-74
2022/11/12 05:02:26;;;;;;;11.35;5.93;;;7.80;99.90;;;;;;5031180;28;20017;-74
2022/11/12 05:04:51;;;;;;;13.05;6.13;;;7.80;99.90;;;;;;5031043;28;20374;-73
2022/11/12 05:07:19;;;;;;;11.82;6.13;;;7.80;99.90;;;;;;5031420;28;20029;-74
2022/11/12 05:09:49;;;;;;;11.18;6.38;;;7.80;99.90;;;;;;5032502;28;20033;-74
2022/11/12 05:12:15;;;;;;;12.05;6.20;;;7.80;99.90;;;;;;5030444;28;20458;-73
2022/11/12 05:14:41;;;;;;;10.15;5.25;;;7.70;99.90;;;;;;5031860;28;20029;-74
2022/11/12 05:17:06;;;;;;;11.52;5.78;;;7.70;99.90;;;;;;5031838;28;20021;-74
2022/11/12 05:19:33;;;;;;;12.63;6.50;;;7.60;99.90;;;;;;5030278;28;20502;-74
2022/11/12 05:22:05;;;;;;;11.82;6.28;;;7.50;99.90;;;;;;5030692;28;20056;-75
2022/11/12 05:24:34;;;;;;;8.10;5.25;;;7.40;99.90;;;;;;5031378;28;20029;-73
2022/11/12 05:26:59;;;;;;;14.25;6.03;;;7.40;99.90;;;;;;5032088;28;20102;-74
2022/11/12 05:29:25;;;;;;;11.65;5.32;;;7.40;99.90;;;;;;5030600;28;20087;-74
2022/11/12 05:31:51;;;;;;;11.38;5.25;;;7.30;99.90;;;;;;5029843;28;20025;-74
2022/11/12 05:34:18;;;;;;;6.82;4.78;;;7.20;99.90;;;;;;5032783;28;20030;-74
2022/11/12 05:36:44;;;;;;;9.52;5.43;;;7.20;99.90;;;;;;5031427;28;20029;-75
2022/11/12 05:39:10;;;;;;;9.15;4.93;;;7.10;99.90;;;;;;5031637;28;20018;-75
2022/11/12 05:41:35;;;;;;;11.07;5.30;;;7.10;99.90;;;;;;5029610;28;20695;-74
2022/11/12 05:44:01;;;;;;;8.35;5.03;;;7.10;99.90;;;;;;5029061;28;20030;-73
2022/11/12 05:46:27;;;;;;;6.40;4.60;;;7.00;99.90;;;;;;5031122;28;20021;-74
2022/11/12 05:48:52;;;;;;;9.25;5.07;;;7.00;99.90;;;;;;5030739;28;20025;-75
2022/11/12 05:51:18;;;;;;;8.98;4.75;;;6.90;99.90;;;;;;5031094;28;20017;-75
2022/11/12 05:53:43;;;;;;;10.35;5.35;;;6.90;99.90;;;;;;5030867;28;20030;-75
2022/11/12 05:56:10;;;;;;;7.03;4.63;;;6.90;99.90;;;;;;5031350;28;20105;-74
2022/11/12 05:58:36;;;;;;;7.78;4.47;;;6.80;99.90;;;;;;5031622;28;20044;-74
2022/11/12 06:01:03;;;;;;;7.97;5.55;;;6.80;99.90;;;;;;5028675;28;20025;-75
2022/11/12 06:03:29;;;;;;;9.35;5.38;;;6.80;99.90;;;;;;5049025;28;20040;-75
2022/11/12 06:05:54;;;;;;;8.88;4.75;;;6.80;99.90;;;;;;5030737;28;20029;-75
2022/11/12 06:08:20;;;;;;;9.10;5.47;;;6.80;99.90;;;;;;5029452;28;20438;-75
2022/11/12 06:10:55;;;;;;;7.55;4.75;;;6.70;99.90;;;;;;5030620;28;20026;-75
2022/11/12 06:13:23;;;;;;;7.60;4.82;;;6.70;99.90;;;;;;5018089;28;20079;-75
2022/11/12 06:15:49;;;;;;;10.05;4.93;;;6.70;99.90;;;;;;5030365;28;20017;-74
2022/11/12 06:18:15;;;;;;;7.95;5.18;;;6.70;99.90;;;;;;5031850;28;20541;-75
2022/11/12 06:20:43;;;;;;;9.68;4.90;;;6.70;99.90;;;;;;5043438;28;20036;-74
2022/11/12 06:23:08;;;;;;;11.80;5.28;;;6.60;99.90;;;;;;5032818;28;20030;-75
2022/11/12 06:25:34;;;;;;;12.68;5.90;;;6.60;99.90;;;;;;5031033;28;20082;-75
2022/11/12 06:28:00;;;;;;;9.95;5.78;;;6.60;99.90;;;;;;5030695;28;20037;-74
2022/11/12 06:30:25;;;;;;;11.23;5.47;;;6.60;99.90;;;;;;5030744;28;20021;-74
2022/11/12 06:32:51;;;;;;;12.85;6.15;;;6.60;99.90;;;;;;5029114;28;20029;-75
2022/11/12 06:35:18;;;;;;;9.27;5.65;;;6.60;99.90;;;;;;5030485;28;20079;-75
2022/11/12 06:37:49;;;;;;;15.40;6.38;;;6.60;99.90;;;;;;5031295;28;20021;-75
2022/11/12 06:40:17;;;;;;;11.38;5.80;;;6.60;99.90;;;;;;5027552;28;20025;-75
2022/11/12 06:42:43;;;;;;;11.52;5.25;;;6.50;99.90;;;;;;5030171;28;20037;-74
2022/11/12 06:45:09;;;;;;;10.65;6.05;;;6.50;99.90;;;;;;5029265;28;20366;-74
2022/11/12 06:47:35;;;;;;;9.13;5.47;;;6.50;99.90;;;;;;5031386;28;20041;-73
2022/11/12 06:50:05;;;;;;;8.90;5.47;;;6.50;99.90;;;;;;5032900;28;20025;-73
2022/11/12 06:52:32;;;;;;;8.25;5.15;;;6.50;99.90;;;;;;5040143;28;20096;-73
2022/11/12 06:54:59;;;;;;;12.60;6.30;;;6.50;99.90;;;;;;5041848;28;20049;-74
2022/11/12 06:57:25;;;;;;;7.72;5.40;;;6.50;99.90;;;;;;5039585;28;20545;-76
2022/11/12 06:59:51;;;;;;;12.95;5.78;;;6.50;99.90;;;;;;5030663;28;20053;-75
2022/11/12 07:02:18;;;;;;;11.20;5.90;;;6.50;99.90;;;;;;5031971;28;20645;-74
2022/11/12 07:04:44;;;;;;;6.38;5.03;;;6.50;99.90;;;;;;5029840;28;20427;-74
2022/11/12 07:07:12;;;;;;;13.48;6.47;;;6.50;99.90;;;;;;5027817;28;20112;-74
2022/11/12 07:09:38;;;;;;;12.60;6.15;;;6.50;99.90;;;;;;5029214;28;20017;-74
2022/11/12 07:12:04;;;;;;;14.52;5.38;;;6.50;99.90;;;;;;5030333;28;20032;-73
2022/11/12 07:14:32;;;;;;;9.55;5.43;;;6.50;99.90;;;;;;5031565;28;20031;-73
2022/11/12 07:17:00;;;;;;;8.65;4.95;;;7.10;99.90;;;;;;5032252;28;20033;-76
2022/11/12 07:19:25;;;;;;;8.38;5.60;;;7.40;99.90;;;;;;5029520;28;20138;-76
2022/11/12 07:21:51;;;;;;;16.23;5.82;;;7.30;99.90;;;;;;5030993;28;20425;-73
2022/11/12 07:24:17;;;;;;;11.77;5.32;;;7.10;99.90;;;;;;5030183;28;20529;-75
2022/11/12 07:26:42;;;;;;;10.05;5.30;;;7.10;99.90;;;;;;5031287;28;20033;-74
2022/11/12 07:29:10;;;;;;;10.85;5.78;;;7.00;99.90;;;;;;5030727;28;20096;-74
2022/11/12 07:31:36;;;;;;;9.20;5.88;;;7.00;99.90;;;;;;5029704;28;20167;-74
2022/11/12 07:34:02;;;;;;;16.30;5.57;;;7.10;99.90;;;;;;5030471;28;20466;-73
2022/11/12 07:36:27;;;;;;;13.68;6.13;;;7.10;99.90;;;;;;5026870;28;20466;-74
2022/11/12 07:38:56;;;;;;;8.20;5.90;;;7.10;99.90;;;;;;5030797;28;20030;-73
2022/11/12 07:41:23;;;;;;;7.25;5.15;;;7.10;99.90;;;;;;5029956;28;20075;-75
2022/11/12 07:43:53;;;;;;;9.95;5.15;;;7.10;99.90;;;;;;5030040;28;20053;-74
2022/11/12 07:46:21;;;;;;;9.68;5.15;;;7.10;99.90;;;;;;5029611;28;20087;-74
2022/11/12 07:48:50;;;;;;;9.32;4.70;;;7.10;99.90;;;;;;5012925;28;20060;-74
2022/11/12 07:51:20;;;;;;;8.40;5.15;;;7.20;99.90;;;;;;5027919;28;20034;-75
2022/11/12 07:53:47;;;;;;;8.10;4.70;;;7.20;99.90;;;;;;5030156;28;20030;-75
2022/11/12 07:56:18;;;;;;;12.23;5.85;;;7.30;99.90;;;;;;5029423;28;20109;-75
2022/11/12 07:58:47;;;;;;;10.95;5.60;;;7.40;99.90;;;;;;5028419;28;20037;-75
2022/11/12 08:01:34;;;;;;;10.20;5.63;;;7.60;99.90;;;;;;5029768;28;20025;-75
2022/11/12 08:04:01;;;;;;;10.10;5.07;;;7.70;99.90;;;;;;5027111;28;20046;-73
2022/11/12 08:06:30;;;;;;;8.82;5.70;;;7.90;99.90;;;;;;5028770;28;20587;-75
2022/11/12 08:08:58;;;;;;;11.75;6.00;;;8.00;99.90;;;;;;5028630;28;20037;-73
2022/11/12 08:11:24;;;;;;;14.45;6.32;;;8.10;99.90;;;;;;5029165;28;20068;-74
2022/11/12 08:13:52;;;;;;;9.85;6.10;;;8.30;99.90;;;;;;5031383;28;20030;-75
2022/11/12 08:16:18;;;;;;;14.98;6.00;;;8.40;99.90;;;;;;5032203;28;20026;-75
2022/11/12 08:18:44;;;;;;;12.93;5.85;;;8.50;99.90;;;;;;5033064;28;20039;-74
2022/11/12 08:21:12;;;;;;;12.65;6.10;;;8.60;99.90;;;;;;5032756;28;20470;-74
2022/11/12 08:23:39;;;;;;;11.90;6.22;;;8.70;99.90;;;;;;5031753;28;20036;-74
2022/11/12 08:26:07;;;;;;;13.20;6.30;;;8.80;99.90;;;;;;5033024;28;20060;-74
2022/11/12 08:28:35;;;;;;;8.85;6.22;;;8.90;99.90;;;;;;5047031;28;20075;-74
2022/11/12 08:31:12;;;;;;;11.85;6.45;;;8.90;99.90;;;;;;5031854;28;20025;-74
2022/11/12 08:33:38;;;;;;;15.45;6.88;;;9.00;99.90;;;;;;5031760;28;20022;-74
2022/11/12 08:36:06;;;;;;;11.70;6.20;;;9.10;99.90;;;;;;5032161;28;20087;-74
2022/11/12 08:38:32;;;;;;;12.45;6.32;;;9.10;99.90;;;;;;5031065;28;20033;-75
2022/11/12 08:41:05;;;;;;;12.90;6.43;;;9.20;99.90;;;;;;5030701;28;20032;-75
2022/11/12 08:43:30;;;;;;;14.75;6.63;;;9.30;99.90;;;;;;5033113;28;20052;-74
2022/11/12 08:46:00;;;;;;;8.82;5.80;;;9.40;99.90;;;;;;5030538;28;20447;-74
2022/11/12 08:48:27;;;;;;;11.27;6.50;;;9.50;99.90;;;;;;5032609;28;20429;-74
2022/11/12 08:50:52;;;;;;;9.48;6.35;;;9.60;99.90;;;;;;5032591;28;20053;-74
2022/11/12 08:53:23;;;;;;;15.25;7.03;;;9.70;99.90;;;;;;5031739;28;20057;-74
2022/11/12 08:55:53;;;;;;;13.13;6.28;;;9.80;99.90;;;;;;5030845;28;20084;-74
2022/11/12 08:58:19;;;;;;;11.02;6.72;;;9.90;99.90;;;;;;5031351;28;20228;-75
2022/11/12 09:00:45;;;;;;;17.08;6.88;;;10.00;99.90;;;;;;5029917;28;20029;-74
2022/11/12 09:03:19;;;;;;;14.40;7.18;;;10.10;99.90;;;;;;5031356;28;20056;-75
2022/11/12 09:05:45;;;;;;;14.50;6.82;;;10.20;99.90;;;;;;5031005;28;20037;-74
2022/11/12 09:08:14;;;;;;;11.15;5.97;;;10.30;99.90;;;;;;5030020;28;20022;-74
2022/11/12 09:10:41;;;;;;;15.32;7.15;;;10.40;99.90;;;;;;5032288;28;20477;-74
2022/11/12 09:13:09;;;;;;;10.80;6.75;;;10.40;99.90;;;;;;5029468;28;20146;-74
2022/11/12 09:15:37;;;;;;;19.35;6.30;;;10.50;99.90;;;;;;5031968;28;20052;-75
2022/11/12 09:18:06;;;;;;;15.15;6.82;;;10.60;99.90;;;;;;5030840;28;20083;-74
2022/11/12 09:20:32;;;;;;;11.20;6.97;;;10.80;99.90;;;;;;5029334;28;20049;-74
2022/11/12 09:23:03;;;;;;;11.57;6.80;;;10.90;99.90;;;;;;5028997;28;20459;-74
2022/11/12 09:25:32;;;;;;;13.45;7.03;;;11.00;99.90;;;;;;5029934;28;20855;-75
2022/11/12 09:28:06;;;;;;;16.30;7.68;;;11.10;99.90;;;;;;5030694;28;20084;-74
2022/11/12 09:30:32;;;;;;;14.20;6.95;;;11.20;99.90;;;;;;5030641;28;20026;-74
2022/11/12 09:32:58;;;;;;;13.18;6.68;;;11.40;99.90;;;;;;5027470;28;20025;-73
2022/11/12 09:35:23;;;;;;;14.20;6.85;;;11.50;99.90;;;;;;5031020;28;20021;-75
2022/11/12 09:37:51;;;;;;;16.77;7.78;;;11.50;99.90;;;;;;5029974;28;20033;-73
2022/11/12 09:40:19;;;;;;;14.63;6.90;;;11.60;99.90;;;;;;5031725;28;20163;-73
2022/11/12 09:42:52;;;;;;;14.43;7.50;;;11.80;99.90;;;;;;5020260;28;20042;-73
2022/11/12 09:45:30;;;;;;;14.43;7.57;;;11.90;99.90;;;;;;5023465;28;20091;-73
2022/11/12 09:48:01;;;;;;;13.50;6.80;;;12.10;99.90;;;;;;5030157;28;20022;-73
2022/11/12 09:50:32;;;;;;;14.63;6.63;;;12.30;99.90;;;;;;5022342;28;20021;-74
2022/11/12 09:53:11;;;;;;;13.45;7.10;;;12.50;99.90;;;;;;5030182;28;20032;-74
2022/11/12 09:55:43;;;;;;;12.70;6.65;;;12.80;99.90;;;;;;5030616;28;20071;-73
2022/11/12 09:58:16;;;;;;;11.75;6.63;;;13.00;99.90;;;;;;5029185;28;20052;-73
2022/11/12 10:00:48;;;;;;;;;;;13.20;99.90;;;;;;5031833;28;20049;-73
2022/11/12 10:03:27;;;;;;;13.38;6.07;;;13.30;99.90;;;;;;5031155;28;19909;-74
2022/11/12 10:05:53;;;;;;;14.63;7.15;;;13.60;99.90;;;;;;5028335;28;20025;-75
2022/11/12 10:08:25;;;;;;;33.53;12.00;;;13.80;99.90;;;;;;5027493;28;20037;-72
2022/11/12 10:11:28;;;;;;;25.27;9.32;;;14.10;99.90;;;;;;5025035;28;20359;-73
2022/11/12 10:14:05;;;;;;;;;;;14.30;99.90;;;;;;5010565;28;20034;-73
2022/11/12 10:17:06;;;;;;;11.13;5.95;;;14.50;99.90;;;;;;5027462;28;19927;-73
2022/11/12 10:19:48;;;;;;;11.95;6.30;;;14.50;99.90;;;;;;5054916;28;20366;-73
2022/11/12 10:22:45;;;;;;;12.95;5.85;;;14.60;99.90;;;;;;5029592;28;20048;-73
2022/11/12 10:25:20;;;;;;;10.27;5.63;;;14.80;99.90;;;;;;5029267;28;20025;-73
2022/11/12 10:27:47;;;;;;;8.27;6.00;;;15.10;99.90;;;;;;5030641;28;20031;-76
2022/11/12 10:30:21;;;;;;;16.10;6.80;;;15.30;99.90;;;;;;5031444;28;20028;-74
2022/11/12 10:32:48;;;;;;;10.50;5.85;;;15.50;99.90;;;;;;5010343;28;20030;-74
2022/11/12 10:35:22;;;;;;;14.40;5.82;;;15.70;99.90;;;;;;5027847;28;20029;-73
2022/11/12 10:38:13;;;;;;;10.02;5.50;;;16.00;99.90;;;;;;5029339;28;20133;-73
2022/11/12 10:40:42;;;;;;;7.72;4.85;;;16.30;99.90;;;;;;5027944;28;21112;-74
2022/11/12 10:43:16;;;;;;;5.93;4.63;;;16.40;99.90;;;;;;5030212;28;20041;-74
2022/11/12 10:45:44;;;;;;;9.57;5.35;;;16.70;99.90;;;;;;5035265;28;20033;-72
2022/11/12 10:48:31;;;;;;;12.02;5.30;;;17.00;99.50;;;;;;5035953;28;20042;-74
2022/11/12 10:50:58;;;;;;;265.98;109.93;;;17.10;98.20;;;;;;5025955;28;20029;-70
2022/11/12 10:53:38;;;;;;;829.22;307.38;;;17.20;98.20;;;;;;5030452;28;20571;-70
2022/11/12 10:56:22;;;;;;;16.25;7.15;;;17.30;97.70;;;;;;5026225;28;20037;-74
2022/11/12 10:59:20;;;;;;;9.57;5.47;;;17.40;97.30;;;;;;5027943;28;20058;-74
2022/11/12 11:01:57;;;;;;;8.30;4.93;;;17.50;96.30;;;;;;5027561;28;20036;-74
2022/11/12 11:04:31;;;;;;;7.60;5.03;;;17.60;96.20;;;;;;5023762;28;20056;-75
2022/11/12 11:07:16;;;;;;;9.02;5.25;;;17.70;95.60;;;;;;5028431;28;20431;-73
2022/11/12 11:09:53;;;;;;;7.72;4.68;;;17.70;96.00;;;;;;5029942;28;20041;-73
2022/11/12 11:12:26;;;;;;;8.43;5.03;;;17.80;95.50;;;;;;5023037;28;20029;-72
2022/11/12 11:15:08;;;;;;;8.98;5.40;;;17.90;95.20;;;;;;5028123;28;20085;-73
2022/11/12 11:17:33;;;;;;;12.07;5.13;;;18.00;95.20;;;;;;5023944;28;20069;-73
2022/11/12 11:20:00;;;;;;;11.65;5.57;;;18.10;94.40;;;;;;5027101;28;20410;-74
2022/11/12 11:22:42;;;;;;;8.88;5.90;;;18.10;94.00;;;;;;5021876;28;20097;-73
2022/11/12 11:25:30;;;;;;;12.18;6.00;;;18.10;94.70;;;;;;5028273;28;20056;-72
2022/11/12 11:27:58;;;;;;;12.55;6.15;;;18.30;94.70;;;;;;5023507;28;20036;-73
2022/11/12 11:30:24;;;;;;;17.85;6.43;;;18.50;94.00;;;;;;5026231;28;20036;-73
2022/11/12 11:33:31;;;;;;;933.75;235.52;;;18.50;95.30;;;;;;5023108;28;20048;-72
2022/11/12 11:38:31;;;;;;;35.45;13.40;;;18.90;91.90;;;;;;5059021;28;20539;-73
2022/11/12 11:41:19;;;;;;;11.82;6.20;;;19.00;91.60;;;;;;5046520;28;20036;-74
2022/11/12 11:43:57;;;;;;;13.48;7.18;;;19.10;91.60;;;;;;5043068;28;20132;-72
2022/11/12 11:46:42;;;;;;;13.20;6.95;;;19.00;91.60;;;;;;5045024;28;20021;-73
2022/11/12 11:49:34;;;;;;;13.98;6.85;;;19.00;91.70;;;;;;5044589;28;20053;-72
2022/11/12 11:52:14;;;;;;;13.15;6.70;;;19.10;90.80;;;;;;5044713;28;20757;-73
2022/11/12 11:55:10;;;;;;;13.38;6.38;;;19.30;90.70;;;;;;5040667;28;20044;-73
2022/11/12 11:58:04;;;;;;;15.60;6.95;;;19.30;90.60;;;;;;5050644;28;20029;-73
2022/11/12 12:00:40;;;;;;;15.75;6.45;;;19.40;91.40;;;;;;5048609;28;20111;-73
2022/11/12 12:03:16;;;;;;;13.13;6.80;;;19.60;90.90;;;;;;5049823;28;20021;-72
2022/11/12 12:05:48;;;;;;;16.75;7.45;;;19.70;90.70;;;;;;5052343;28;20092;-71
2022/11/12 12:08:33;;;;;;;13.45;7.03;;;19.70;90.60;;;;;;5050302;28;20032;-72
2022/11/12 12:11:22;;;;;;;13.77;7.10;;;19.70;90.20;;;;;;5040076;28;20017;-72
2022/11/12 12:14:06;;;;;;;18.63;6.43;;;20.00;90.30;;;;;;5042293;28;20037;-75
2022/11/12 12:16:51;;;;;;;15.77;6.70;;;20.50;87.60;;;;;;5053035;28;20029;-73
2022/11/12 12:19:28;;;;;;;11.55;7.03;;;20.70;85.80;;;;;;5048786;28;20032;-73
2022/11/12 12:21:57;;;;;;;14.85;6.55;;;20.70;85.00;;;;;;5045760;28;20450;-72
2022/11/12 12:24:31;;;;;;;12.00;6.40;;;20.60;85.30;;;;;;5048705;28;20063;-73
2022/11/12 12:27:02;;;;;;;12.15;7.20;;;20.50;84.70;;;;;;5046984;28;20746;-73
2022/11/12 12:29:39;;;;;;;15.25;7.32;;;20.50;85.40;;;;;;5051808;28;20029;-73
2022/11/12 12:32:13;;;;;;;11.85;6.38;;;20.60;85.40;;;;;;5049742;28;20178;-72
2022/11/12 12:34:44;;;;;;;11.93;6.68;;;20.70;84.80;;;;;;5045522;28;20045;-73
2022/11/12 12:37:41;;;;;;;17.33;7.03;;;20.80;83.70;;;;;;5044999;28;20108;-71
2022/11/12 12:40:36;;;;;;;13.10;6.80;;;20.80;83.10;;;;;;5044808;28;20037;-72
2022/11/12 12:43:13;;;;;;;11.65;6.45;;;20.80;82.40;;;;;;5016387;28;20032;-72
2022/11/12 12:45:43;;;;;;;14.45;7.18;;;21.00;82.90;;;;;;5043699;28;20079;-71
2022/11/12 12:48:34;;;;;;;13.02;6.35;;;21.10;81.60;;;;;;5032021;28;20117;-72
2022/11/12 12:51:00;;;;;;;17.25;7.10;;;21.40;81.60;;;;;;5023652;28;20056;-72
2022/11/12 12:53:26;;;;;;;16.65;6.13;;;21.70;79.50;;;;;;5032273;28;20653;-73
2022/11/12 12:55:57;;;;;;;12.43;6.85;;;21.90;79.30;;;;;;5038140;28;20022;-72
2022/11/12 12:58:40;;;;;;;14.82;7.10;;;22.30;77.70;;;;;;5037241;28;20429;-72
2022/11/12 13:01:26;;;;;;;18.17;7.13;;;22.70;76.00;;;;;;5037103;28;20044;-73
2022/11/12 13:04:07;;;;;;;16.20;6.50;;;23.20;74.10;;;;;;5021861;28;20521;-73
2022/11/12 13:06:45;;;;;;;13.77;7.30;;;23.70;73.60;;;;;;5023989;28;20034;-72
2022/11/12 13:09:16;;;;;;;13.57;6.72;;;24.20;70.50;;;;;;5035864;28;20052;-72
2022/11/12 13:14:35;;;;;;;10.20;6.05;;;25.50;66.50;;;;;;5030880;28;20094;-75
2022/11/12 13:17:01;;;;;;;17.08;7.32;;;27.00;63.00;;;;;;5032710;28;20450;-74
2022/11/12 13:20:03;;;;;;;24.73;8.60;;;32.10;56.30;;;;;;5031506;28;20075;-68
2022/11/12 13:22:32;;;;;;;15.18;6.63;;;36.00;43.50;;;;;;5030189;28;20045;-73
2022/11/12 13:25:07;;;;;;;13.98;6.38;;;38.60;37.90;;;;;;5032542;28;20064;-74
2022/11/12 13:27:53;;;;;;;17.02;6.95;;;40.10;33.60;;;;;;5037847;28;20040;-73